Decoded Metar for YTEF (TELFER AIRPORT in _UNIDENTIFIED) (IATA:N/A) | Meteo·Mobile Aviation Weather
aviador You're here:

YTEF Decoded Metar

TELFER AIRPORT in _UNIDENTIFIED
Report Time2018-10-20 17:00:00
UTC Time2018-10-20 18:05:50
Flight Rules vfr VFR
Wind010° at 05 kt
W.Decomp.*RWY 30: 1.9 kt HW 4.6 kt RCW
W.Rank010° ranks 26
Current wind is below 010° avg. (7.3)
Visibility9999 m
Phenomena:N/A
Clouds:N/A
Expected CloudBase > 8,800 ft AGL from Temp-Dew spread
CeilingNone
Temp24°C (ISA +11)
Dew Point02°C (24% RH)
AAT20.6°C
QNH1013 hPa
Density Alt2,336 ft
Elevation971 ft
Report Wrong Elevation
Raw Report
YTEF 201700Z AUTO 01005KT 330V130 9999 // NCD 24/02 Q1013=

Extra information for YTEF:More info

Metar Taf Metar & Taf Last 4 Metars F.Rules Stats Wind Profile Meteogram Temp Stats Airport Information Weather charts Add Link Nearby VenuesMetar ALERT Operation Metar Decoded Social comments